Time;durP1;ratioP1;P1;durP2;ratioP2;P2;SDS_P1;SDS_P2;PMS_P1;PMS_P2;Temp;Humidity;BMP_temperature;BMP_pressure;BME280_temperature;BME280_humidity;BME280_pressure;Samples;Min_cycle;Max_cycle;Signal;HPM_P1;HPM_P2
2023/11/05 00:02:48;;;;;;;22.60;12.70;;;;;;;4.29;78.34;97721.02;130645;1257;108732;-75
2023/11/05 00:05:53;;;;;;;21.00;11.60;;;;;;;4.26;78.35;97714.87;130639;1256;108654;-74
2023/11/05 00:08:59;;;;;;;20.60;11.10;;;;;;;4.24;78.29;97702.08;130559;1256;105901;-75
2023/11/05 00:12:05;;;;;;;22.40;11.90;;;;;;;4.28;78.65;97688.30;130595;1260;107161;-74
2023/11/05 00:15:11;;;;;;;23.30;12.70;;;;;;;4.32;78.89;97672.82;130582;1255;108147;-74
2023/11/05 00:18:17;;;;;;;23.80;13.40;;;;;;;4.39;79.01;97664.02;130577;1258;108664;-75
2023/11/05 00:21:22;;;;;;;23.20;13.00;;;;;;;4.46;79.17;97653.30;130606;1256;108443;-75
2023/11/05 00:24:28;;;;;;;24.30;13.10;;;;;;;4.53;79.31;97650.20;130563;1260;106447;-75
2023/11/05 00:27:33;;;;;;;21.80;13.90;;;;;;;4.58;79.63;97653.86;130584;1261;107755;-74
2023/11/05 00:30:39;;;;;;;23.60;13.30;;;;;;;4.63;79.68;97656.26;130586;1260;106544;-74
2023/11/05 00:33:45;;;;;;;22.40;12.70;;;;;;;4.66;79.77;97642.85;130513;1257;107187;-75
2023/11/05 00:36:51;;;;;;;21.90;12.40;;;;;;;4.69;79.85;97635.95;130544;1257;106014;-74
2023/11/05 00:39:56;;;;;;;19.70;11.90;;;;;;;4.74;79.83;97627.52;130588;1260;105646;-74
2023/11/05 00:43:04;;;;;;;22.50;13.50;;;;;;;4.81;80.01;97611.17;130666;1260;107689;-74
2023/11/05 00:46:12;;;;;;;25.40;14.80;;;;;;;4.91;80.24;97608.27;130586;1260;106543;-74
2023/11/05 00:49:18;;;;;;;43.20;22.30;;;;;;;4.98;80.34;97606.90;130488;1260;108410;-74
2023/11/05 00:52:23;;;;;;;37.50;20.10;;;;;;;5.02;80.43;97603.17;130600;1257;106657;-74
2023/11/05 00:55:29;;;;;;;25.60;14.30;;;;;;;5.06;80.15;97590.70;130587;1260;107506;-74
2023/11/05 00:58:35;;;;;;;24.60;14.20;;;;;;;5.09;80.37;97581.23;130518;1257;106762;-74
2023/11/05 01:01:40;;;;;;;20.40;12.20;;;;;;;5.11;80.60;97581.58;130462;1260;108727;-75
2023/11/05 01:04:46;;;;;;;21.20;12.00;;;;;;;5.10;80.60;97576.36;130591;1258;107692;-75
2023/11/05 01:07:52;;;;;;;23.20;12.20;;;;;;;5.14;80.86;97576.08;130529;1260;107943;-75
2023/11/05 01:10:58;;;;;;;25.80;14.10;;;;;;;5.19;80.97;97576.16;130539;1260;106759;-75
2023/11/05 01:14:04;;;;;;;25.80;13.80;;;;;;;5.26;81.05;97582.95;130617;1257;106979;-77
2023/11/05 01:17:12;;;;;;;23.70;13.90;;;;;;;5.30;81.08;97584.83;130541;1258;107757;-75
2023/11/05 01:20:18;;;;;;;24.80;13.70;;;;;;;5.35;80.94;97583.45;130510;1260;108545;-75
2023/11/05 01:23:24;;;;;;;25.10;14.00;;;;;;;5.37;81.17;97582.02;130569;1260;106470;-74
2023/11/05 01:26:30;;;;;;;25.10;14.60;;;;;;;5.36;81.29;97582.25;130526;1256;108484;-74
2023/11/05 01:29:36;;;;;;;24.20;14.00;;;;;;;5.34;81.17;97579.33;130561;1257;106524;-74
2023/11/05 01:32:41;;;;;;;21.30;12.60;;;;;;;5.32;81.23;97577.64;130563;1260;108704;-74
2023/11/05 01:35:47;;;;;;;19.90;12.10;;;;;;;5.30;81.72;97574.98;130519;1256;108912;-75
2023/11/05 01:38:52;;;;;;;24.80;13.90;;;;;;;5.31;81.70;97570.67;130490;1260;107761;-75
2023/11/05 01:41:58;;;;;;;24.20;13.90;;;;;;;5.34;81.75;97562.97;130560;1260;108647;-75
2023/11/05 01:45:04;;;;;;;23.70;13.20;;;;;;;5.37;81.73;97557.44;130606;1260;106540;-75
2023/11/05 01:48:10;;;;;;;23.00;13.80;;;;;;;5.40;81.97;97555.84;130550;1259;106933;-75
2023/11/05 01:51:16;;;;;;;23.20;14.20;;;;;;;5.42;81.95;97551.39;130612;1256;107438;-74
2023/11/05 01:54:22;;;;;;;24.20;13.70;;;;;;;5.43;81.82;97559.63;130579;1260;106741;-75
2023/11/05 01:57:27;;;;;;;22.10;12.80;;;;;;;5.45;82.06;97555.70;130489;1256;106173;-75
2023/11/05 02:00:34;;;;;;;19.80;11.70;;;;;;;5.47;82.66;97556.21;130277;1262;106361;-75
2023/11/05 02:03:41;;;;;;;19.60;11.70;;;;;;;5.49;82.64;97554.52;130449;1274;106807;-75
2023/11/05 02:06:47;;;;;;;20.90;12.30;;;;;;;5.57;82.73;97549.67;130516;1256;108538;-76
2023/11/05 02:09:53;;;;;;;22.80;12.80;;;;;;;5.66;82.74;97551.45;130471;1262;107921;-76
2023/11/05 02:12:59;;;;;;;23.80;13.10;;;;;;;5.75;82.76;97544.52;130557;1261;107835;-76
2023/11/05 02:16:06;;;;;;;22.50;13.20;;;;;;;5.83;82.92;97537.19;130547;1257;107569;-76
2023/11/05 02:19:13;;;;;;;21.20;12.80;;;;;;;5.88;82.89;97532.64;130550;1258;107397;-76
2023/11/05 02:22:19;;;;;;;19.00;12.60;;;;;;;5.90;82.81;97530.13;130566;1257;107399;-75
2023/11/05 02:25:25;;;;;;;20.90;13.20;;;;;;;5.92;82.75;97524.65;130645;1258;108802;-75
2023/11/05 02:28:31;;;;;;;21.10;11.60;;;;;;;5.93;83.07;97513.41;130573;1261;108234;-76
2023/11/05 02:31:37;;;;;;;19.40;11.80;;;;;;;5.93;83.06;97495.71;130480;1262;107735;-75
2023/11/05 02:34:42;;;;;;;17.50;11.00;;;;;;;5.95;83.17;97488.86;130395;1262;108787;-77
2023/11/05 02:37:48;;;;;;;21.60;12.70;;;;;;;5.98;83.18;97481.98;130567;1257;107060;-76
2023/11/05 02:40:54;;;;;;;19.10;11.80;;;;;;;6.03;83.29;97481.77;130515;1260;107192;-75
2023/11/05 02:43:59;;;;;;;20.00;12.40;;;;;;;6.10;83.43;97486.55;130564;1261;107778;-75
2023/11/05 02:47:06;;;;;;;21.20;12.30;;;;;;;6.17;83.30;97480.64;130462;1262;107435;-76
2023/11/05 02:50:12;;;;;;;18.60;11.30;;;;;;;6.21;83.30;97477.54;130517;1260;108732;-76
2023/11/05 02:53:18;;;;;;;18.80;12.90;;;;;;;6.23;83.47;97484.59;130501;1260;107691;-75
2023/11/05 02:56:24;;;;;;;19.50;11.70;;;;;;;6.24;83.63;97488.11;130540;1258;106554;-77
2023/11/05 02:59:30;;;;;;;17.50;10.40;;;;;;;6.24;83.67;97488.88;130457;1260;106981;-77
2023/11/05 03:02:36;;;;;;;19.40;10.90;;;;;;;6.25;83.41;97496.19;130428;1257;109057;-78
2023/11/05 03:05:44;;;;;;;18.30;10.10;;;;;;;6.29;83.81;97495.27;130513;1262;108619;-76
2023/11/05 03:08:49;;;;;;;16.50;10.50;;;;;;;6.37;83.67;97498.98;130551;1258;106931;-78
2023/11/05 03:11:55;;;;;;;16.00;10.20;;;;;;;6.45;83.89;97497.57;130569;1258;106658;-78
2023/11/05 03:15:01;;;;;;;17.20;9.80;;;;;;;6.52;83.79;97488.94;130502;1262;106897;-77
2023/11/05 03:18:07;;;;;;;16.00;9.90;;;;;;;6.56;83.82;97489.04;130475;1262;106214;-76
2023/11/05 03:21:16;;;;;;;14.60;9.80;;;;;;;6.60;83.97;97485.59;130512;1256;108375;-78
2023/11/05 03:24:22;;;;;;;15.30;9.10;;;;;;;6.63;83.54;97489.60;130534;1261;107757;-77
2023/11/05 03:27:28;;;;;;;15.50;8.80;;;;;;;6.65;83.62;97490.77;130539;1261;107646;-77
2023/11/05 03:30:33;;;;;;;17.10;10.00;;;;;;;6.68;83.89;97497.05;130471;1262;107720;-77
2023/11/05 03:33:39;;;;;;;17.40;9.20;;;;;;;6.73;83.75;97495.58;130523;1261;108763;-75
2023/11/05 03:36:44;;;;;;;14.50;9.60;;;;;;;6.79;83.67;97492.86;130506;1256;106902;-75
2023/11/05 03:39:50;;;;;;;14.50;9.40;;;;;;;6.82;83.80;97487.86;130514;1261;107517;-75
2023/11/05 03:42:55;;;;;;;14.90;9.30;;;;;;;6.84;83.49;97484.77;130565;1261;107717;-75
2023/11/05 03:46:02;;;;;;;17.90;10.20;;;;;;;6.85;83.45;97484.81;130553;1259;108710;-75
2023/11/05 03:49:08;;;;;;;12.80;8.80;;;;;;;6.85;83.51;97481.02;130450;1262;107723;-75
2023/11/05 03:52:13;;;;;;;13.80;8.80;;;;;;;6.84;83.76;97470.17;130607;1260;106374;-75
2023/11/05 03:55:19;;;;;;;14.90;9.20;;;;;;;6.86;83.71;97452.23;130459;1258;107792;-75
2023/11/05 03:58:24;;;;;;;18.30;10.80;;;;;;;6.88;83.69;97443.29;130523;1262;107510;-75
2023/11/05 04:01:30;;;;;;;14.80;9.50;;;;;;;6.91;83.54;97430.03;130556;1260;107698;-75
2023/11/05 04:04:36;;;;;;;16.90;9.90;;;;;;;6.91;83.44;97411.23;130609;1261;105979;-76
2023/11/05 04:07:42;;;;;;;14.90;10.10;;;;;;;6.92;83.42;97398.31;130506;1261;106592;-77
2023/11/05 04:10:47;;;;;;;16.50;10.30;;;;;;;6.89;83.45;97400.99;130557;1260;107122;-76
2023/11/05 04:13:53;;;;;;;15.90;10.50;;;;;;;6.84;83.46;97408.85;130562;1257;107109;-76
2023/11/05 04:16:58;;;;;;;15.00;9.00;;;;;;;6.77;83.52;97416.33;130508;1260;107681;-74
2023/11/05 04:20:05;;;;;;;14.20;8.30;;;;;;;6.72;83.84;97412.56;130557;1256;107737;-74
2023/11/05 04:23:11;;;;;;;15.90;9.60;;;;;;;6.70;83.84;97400.04;130591;1260;107112;-75
2023/11/05 04:26:16;;;;;;;19.10;9.60;;;;;;;6.72;83.69;97395.34;130561;1260;106522;-75
2023/11/05 04:29:22;;;;;;;15.90;9.80;;;;;;;6.73;83.57;97393.00;130570;1260;106954;-76
2023/11/05 04:32:28;;;;;;;15.80;10.40;;;;;;;6.72;83.56;97383.00;130555;1260;107790;-75
2023/11/05 04:35:33;;;;;;;16.90;9.90;;;;;;;6.69;83.25;97371.86;130525;1260;107820;-74
2023/11/05 04:38:39;;;;;;;15.30;9.70;;;;;;;6.64;83.54;97357.49;130629;1260;108735;-74
2023/11/05 04:41:45;;;;;;;14.70;8.90;;;;;;;6.57;83.58;97360.00;130542;1260;107456;-75
2023/11/05 04:44:50;;;;;;;15.30;8.70;;;;;;;6.50;83.58;97363.37;130498;1256;107414;-74
2023/11/05 04:47:56;;;;;;;15.10;8.90;;;;;;;6.47;83.49;97361.80;130513;1260;108556;-75
2023/11/05 04:51:02;;;;;;;18.90;10.50;;;;;;;6.47;83.67;97376.44;130631;1262;108776;-75
2023/11/05 04:54:08;;;;;;;16.30;9.50;;;;;;;6.48;83.75;97386.83;130554;1256;106721;-75
2023/11/05 04:57:14;;;;;;;17.20;9.60;;;;;;;6.48;83.72;97402.96;130592;1256;107250;-75
2023/11/05 05:00:20;;;;;;;19.20;10.30;;;;;;;6.49;83.64;97400.44;130528;1256;108589;-75
2023/11/05 05:03:25;;;;;;;19.10;11.40;;;;;;;6.49;83.76;97399.23;130504;1256;107418;-74
2023/11/05 05:06:31;;;;;;;24.20;13.50;;;;;;;6.49;83.45;97403.29;130500;1259;107188;-74
2023/11/05 05:09:37;;;;;;;66.20;36.70;;;;;;;6.48;83.74;97397.67;130516;1256;107843;-76
2023/11/05 05:12:42;;;;;;;60.90;39.50;;;;;;;6.49;83.89;97400.80;130510;1262;106669;-75
2023/11/05 05:15:48;;;;;;;55.30;32.60;;;;;;;6.48;83.74;97413.73;130600;1256;107689;-75
2023/11/05 05:18:54;;;;;;;26.90;16.70;;;;;;;6.52;83.68;97408.08;130546;1261;107856;-77
2023/11/05 05:22:02;;;;;;;21.40;14.90;;;;;;;6.54;83.84;97408.78;130590;1259;107384;-75
2023/11/05 05:25:10;;;;;;;18.10;11.70;;;;;;;6.57;83.95;97407.13;130537;1259;107652;-76
2023/11/05 05:28:15;;;;;;;19.00;12.40;;;;;;;6.60;83.46;97406.27;130582;1268;109328;-75
2023/11/05 05:31:21;;;;;;;14.10;8.90;;;;;;;6.59;83.46;97413.12;130554;1259;105847;-75
2023/11/05 05:34:26;;;;;;;17.60;10.50;;;;;;;6.59;83.52;97411.21;130651;1258;108590;-75
2023/11/05 05:37:32;;;;;;;17.10;12.70;;;;;;;6.61;83.71;97416.88;130536;1259;107397;-75
2023/11/05 05:40:38;;;;;;;16.70;11.20;;;;;;;6.68;83.69;97408.47;130500;1261;108517;-75
2023/11/05 05:43:43;;;;;;;20.10;12.80;;;;;;;6.74;83.67;97406.13;130679;1257;108506;-76
2023/11/05 05:46:49;;;;;;;15.80;10.30;;;;;;;6.78;83.40;97407.88;134637;1258;107714;-76
2023/11/05 05:49:54;;;;;;;13.10;9.00;;;;;;;6.80;83.30;97396.07;134656;1257;106905;-76
2023/11/05 05:53:00;;;;;;;14.00;9.10;;;;;;;6.83;83.34;97389.11;132458;1260;107486;-76
2023/11/05 05:56:07;;;;;;;15.30;9.70;;;;;;;6.85;83.24;97388.02;130708;1256;107708;-78
2023/11/05 05:59:12;;;;;;;13.20;8.30;;;;;;;6.83;83.17;97390.86;130492;1256;106860;-78
2023/11/05 06:02:18;;;;;;;14.30;7.50;;;;;;;6.83;83.39;97392.17;130586;1262;107716;-78
2023/11/05 06:05:24;;;;;;;16.20;8.30;;;;;;;6.86;83.12;97391.64;130555;1259;107632;-78
2023/11/05 06:08:29;;;;;;;15.10;8.80;;;;;;;6.92;83.46;97388.73;130421;1262;106402;-79
2023/11/05 06:11:35;;;;;;;14.10;8.50;;;;;;;6.99;83.16;97386.17;130507;1260;107056;-79
2023/11/05 06:14:41;;;;;;;15.00;8.70;;;;;;;7.05;83.20;97378.07;130553;1260;106890;-78
2023/11/05 06:17:49;;;;;;;13.90;8.30;;;;;;;7.11;83.08;97374.98;130389;1262;108585;-80
2023/11/05 06:20:57;;;;;;;13.80;8.50;;;;;;;7.13;83.10;97370.27;130503;1258;107636;-79
2023/11/05 06:24:04;;;;;;;12.80;8.30;;;;;;;7.15;83.01;97366.04;130471;1259;108410;-80
2023/11/05 06:27:09;;;;;;;13.50;8.10;;;;;;;7.16;82.91;97358.59;130439;1262;108628;-80
2023/11/05 06:30:16;;;;;;;12.90;7.30;;;;;;;7.18;83.06;97352.39;130446;1256;107749;-78
2023/11/05 06:33:22;;;;;;;12.40;8.10;;;;;;;7.22;83.08;97342.19;130514;1262;108609;-77
2023/11/05 06:36:28;;;;;;;12.10;7.90;;;;;;;7.29;83.02;97333.45;130742;1256;107843;-77
2023/11/05 06:39:34;;;;;;;11.80;8.10;;;;;;;7.37;82.93;97329.70;130553;1256;106581;-73
2023/11/05 06:42:39;;;;;;;15.10;9.90;;;;;;;7.47;83.01;97336.77;130551;1261;108614;-74
2023/11/05 06:45:45;;;;;;;13.40;8.10;;;;;;;7.56;82.79;97349.13;130516;1261;108713;-73
2023/11/05 06:48:50;;;;;;;13.20;8.40;;;;;;;7.62;82.91;97343.69;130531;1260;107713;-73
2023/11/05 06:51:56;;;;;;;15.00;9.00;;;;;;;7.70;82.92;97344.09;130499;1262;107143;-74
2023/11/05 06:55:03;;;;;;;16.40;9.00;;;;;;;7.75;82.83;97342.58;130550;1261;107703;-73
2023/11/05 06:58:10;;;;;;;14.20;7.90;;;;;;;7.78;82.94;97337.66;130696;1261;108677;-72
2023/11/05 07:01:18;;;;;;;13.90;8.10;;;;;;;7.85;82.82;97337.45;130492;1257;107002;-73
2023/11/05 07:04:24;;;;;;;12.80;7.60;;;;;;;7.94;82.79;97331.38;130458;1262;107647;-73
2023/11/05 07:07:29;;;;;;;12.80;7.70;;;;;;;8.03;82.85;97331.32;130516;1262;108681;-74
2023/11/05 07:10:35;;;;;;;11.80;7.60;;;;;;;8.12;82.71;97327.45;130556;1261;107489;-74
2023/11/05 07:13:40;;;;;;;11.70;7.20;;;;;;;8.19;82.53;97324.37;130522;1272;107073;-76
2023/11/05 07:16:46;;;;;;;12.60;7.30;;;;;;;8.24;82.48;97314.95;130513;1272;107942;-73
2023/11/05 07:19:52;;;;;;;11.90;7.30;;;;;;;8.28;82.42;97307.62;130642;1262;108494;-72
2023/11/05 07:22:59;;;;;;;12.90;7.60;;;;;;;8.32;82.43;97307.27;130374;1260;107269;-74
2023/11/05 07:26:05;;;;;;;14.30;8.70;;;;;;;8.34;82.44;97300.72;130276;1262;107627;-73
2023/11/05 07:29:12;;;;;;;13.10;8.20;;;;;;;8.33;82.11;97298.39;130441;1257;106601;-73
2023/11/05 07:32:17;;;;;;;16.80;9.30;;;;;;;8.33;82.50;97303.51;130793;1262;107061;-73
2023/11/05 07:35:23;;;;;;;15.00;9.40;;;;;;;8.40;82.43;97297.84;130576;1262;108610;-74
2023/11/05 07:38:29;;;;;;;13.10;8.30;;;;;;;8.53;82.34;97292.81;130418;1260;108190;-74
2023/11/05 07:41:35;;;;;;;14.30;8.20;;;;;;;8.69;82.28;97288.92;130492;1260;106470;-75
2023/11/05 07:44:40;;;;;;;25.20;15.50;;;;;;;8.79;82.08;97285.06;130525;1260;106952;-75
2023/11/05 07:47:46;;;;;;;15.50;9.00;;;;;;;8.85;82.03;97279.79;130466;1262;107878;-73
2023/11/05 07:50:52;;;;;;;17.40;11.80;;;;;;;8.88;81.68;97283.61;130528;1262;108546;-73
2023/11/05 07:53:59;;;;;;;12.80;8.40;;;;;;;8.90;81.77;97278.98;130590;1257;107890;-73
2023/11/05 07:57:05;;;;;;;12.00;8.30;;;;;;;8.91;81.74;97277.94;130558;1258;106667;-73
2023/11/05 08:00:15;;;;;;;12.40;7.90;;;;;;;8.91;81.43;97288.05;130531;1257;106647;-74
2023/11/05 08:03:22;;;;;;;12.90;8.40;;;;;;;8.89;81.41;97287.89;130741;1262;106149;-73
2023/11/05 08:06:28;;;;;;;10.50;6.40;;;;;;;8.87;81.47;97298.21;130708;1260;107584;-73
2023/11/05 08:09:35;;;;;;;12.10;7.50;;;;;;;8.93;81.65;97300.05;130526;1260;108464;-74
2023/11/05 08:12:41;;;;;;;13.20;8.70;;;;;;;9.03;81.54;97301.02;130806;1260;107854;-74
2023/11/05 08:15:47;;;;;;;12.60;7.00;;;;;;;9.11;81.61;97301.93;130658;1256;108215;-73
2023/11/05 08:18:53;;;;;;;16.20;9.70;;;;;;;9.16;81.33;97298.69;130549;1256;106522;-74
2023/11/05 08:21:59;;;;;;;12.30;7.50;;;;;;;9.18;81.25;97300.06;130571;1262;107105;-74
2023/11/05 08:25:05;;;;;;;13.80;7.80;;;;;;;9.20;81.11;97298.27;130504;1257;106784;-74
2023/11/05 08:28:11;;;;;;;11.80;6.90;;;;;;;9.21;81.08;97297.92;130487;1260;107405;-72
2023/11/05 08:31:16;;;;;;;12.30;6.90;;;;;;;9.19;81.07;97300.06;130676;1256;106907;-74
2023/11/05 08:34:22;;;;;;;10.40;6.10;;;;;;;9.19;81.11;97304.20;130566;1262;107694;-73
2023/11/05 08:37:30;;;;;;;8.60;5.60;;;;;;;9.17;81.07;97305.56;130647;1262;108222;-74
2023/11/05 08:40:36;;;;;;;13.20;6.20;;;;;;;9.17;81.15;97305.31;130678;1262;108373;-74
2023/11/05 08:43:43;;;;;;;9.10;6.00;;;;;;;9.21;81.33;97303.58;130711;1256;108674;-75
2023/11/05 08:46:48;;;;;;;9.00;5.90;;;;;;;9.25;80.96;97304.04;130521;1259;108760;-73
2023/11/05 08:49:54;;;;;;;11.10;7.30;;;;;;;9.29;81.21;97311.70;130501;1262;107066;-73
2023/11/05 08:53:00;;;;;;;12.20;6.60;;;;;;;9.32;81.00;97314.04;130566;1262;108547;-74
2023/11/05 08:56:09;;;;;;;9.00;5.90;;;;;;;9.33;81.11;97313.05;130493;1256;107742;-76
2023/11/05 08:59:15;;;;;;;9.20;6.30;;;;;;;9.33;80.93;97316.13;130465;1260;107799;-74
2023/11/05 09:02:20;;;;;;;10.50;6.70;;;;;;;9.29;80.96;97316.08;130407;1263;106779;-75
2023/11/05 09:05:26;;;;;;;10.10;6.70;;;;;;;9.27;81.42;97311.21;130523;1260;108174;-72
2023/11/05 09:08:32;;;;;;;11.70;6.00;;;;;;;9.24;81.53;97306.99;130525;1260;107752;-73
2023/11/05 09:11:38;;;;;;;8.90;5.80;;;;;;;9.22;81.59;97311.75;130478;1262;107375;-75
2023/11/05 09:14:43;;;;;;;9.00;6.40;;;;;;;9.21;81.80;97312.52;130559;1261;108601;-73
2023/11/05 09:17:50;;;;;;;9.40;6.30;;;;;;;9.24;82.05;97307.43;130488;1257;107754;-74
2023/11/05 09:20:56;;;;;;;11.30;7.80;;;;;;;9.27;82.05;97304.17;130408;1262;108561;-72
2023/11/05 09:24:03;;;;;;;13.20;6.90;;;;;;;9.28;82.06;97306.72;130538;1261;106229;-74
2023/11/05 09:27:09;;;;;;;9.50;6.60;;;;;;;9.26;82.05;97303.90;130790;1262;107424;-77
2023/11/05 09:30:15;;;;;;;8.90;5.90;;;;;;;9.26;82.46;97302.14;130474;1262;108643;-74
2023/11/05 09:33:21;;;;;;;16.50;10.90;;;;;;;9.25;82.63;97300.88;130566;1268;108601;-74
2023/11/05 09:36:27;;;;;;;10.40;6.20;;;;;;;9.23;82.55;97289.98;130558;1262;108469;-74
2023/11/05 09:39:32;;;;;;;8.90;6.20;;;;;;;9.25;82.95;97281.36;130470;1260;108150;-73
2023/11/05 09:42:53;;;;;;;11.30;6.20;;;;;;;9.31;82.70;97281.63;130473;1261;106730;-73
2023/11/05 09:46:01;;;;;;;9.60;6.10;;;;;;;9.37;82.78;97273.02;130495;1262;106697;-73
2023/11/05 09:49:07;;;;;;;10.20;7.10;;;;;;;9.44;82.86;97269.77;130463;1262;107651;-73
2023/11/05 09:52:16;;;;;;;8.60;6.00;;;;;;;9.52;83.00;97260.04;130550;1257;107760;-74
2023/11/05 09:55:22;;;;;;;10.20;6.30;;;;;;;9.56;83.28;97250.90;130460;1262;107234;-73
2023/11/05 09:58:29;;;;;;;10.60;6.10;;;;;;;9.56;83.33;97251.27;130462;1260;107034;-73
2023/11/05 10:01:36;;;;;;;8.30;5.30;;;;;;;9.60;83.24;97250.12;130485;1261;107690;-72
2023/11/05 10:04:42;;;;;;;8.10;5.50;;;;;;;9.67;83.18;97244.73;130544;1261;107784;-74
2023/11/05 10:07:50;;;;;;;10.50;6.10;;;;;;;9.76;83.26;97240.85;130544;1270;106878;-75
2023/11/05 10:10:59;;;;;;;8.00;5.70;;;;;;;9.84;83.29;97241.70;130921;1256;106822;-74
2023/11/05 10:14:06;;;;;;;9.80;5.90;;;;;;;9.89;83.28;97245.96;130637;1256;109122;-75
2023/11/05 10:17:12;;;;;;;8.10;5.70;;;;;;;9.91;83.59;97253.48;130470;1261;107727;-77
2023/11/05 10:20:18;;;;;;;8.50;5.60;;;;;;;9.90;83.22;97251.67;130478;1256;108164;-73
2023/11/05 10:23:24;;;;;;;9.10;5.20;;;;;;;9.88;83.74;97257.97;130540;1257;108532;-73
2023/11/05 10:26:31;;;;;;;6.70;4.50;;;;;;;9.86;83.53;97264.02;130691;1262;105543;-74
2023/11/05 10:29:39;;;;;;;8.80;5.10;;;;;;;9.85;83.63;97258.83;130622;1258;107748;-72
2023/11/05 10:32:46;;;;;;;7.80;5.30;;;;;;;9.87;83.74;97250.84;130703;1262;108787;-75
2023/11/05 10:35:53;;;;;;;7.50;4.80;;;;;;;9.90;83.71;97249.55;130566;1260;106703;-73
2023/11/05 10:38:59;;;;;;;8.90;5.90;;;;;;;9.90;83.96;97249.49;130593;1262;107096;-73
2023/11/05 10:42:07;;;;;;;8.30;5.70;;;;;;;9.91;83.79;97254.70;130523;1266;107446;-73
2023/11/05 10:45:14;;;;;;;11.80;5.80;;;;;;;9.89;83.66;97254.67;130348;1261;210634;-73
2023/11/05 10:48:20;;;;;;;9.80;6.20;;;;;;;9.87;84.02;97245.08;130514;1260;106144;-73
2023/11/05 10:51:28;;;;;;;10.00;6.00;;;;;;;9.86;83.87;97237.88;130517;1262;108144;-73
2023/11/05 10:54:34;;;;;;;10.10;5.80;;;;;;;9.88;84.19;97228.97;130815;1260;109033;-74
2023/11/05 10:57:45;;;;;;;8.80;5.70;;;;;;;9.90;84.12;97219.60;130553;1262;108569;-73
2023/11/05 11:01:03;;;;;;;10.80;6.40;;;;;;;9.93;84.18;97215.91;130771;1260;106453;-73
2023/11/05 11:04:10;;;;;;;13.00;7.90;;;;;;;9.95;84.46;97224.16;130477;1263;106601;-72
2023/11/05 11:07:18;;;;;;;13.70;8.20;;;;;;;9.92;84.78;97236.41;130582;1260;108407;-72
2023/11/05 11:10:25;;;;;;;7.30;5.10;;;;;;;9.89;84.55;97240.63;130533;1270;106611;-72
2023/11/05 11:13:33;;;;;;;10.10;7.40;;;;;;;9.90;84.94;97233.28;130735;1260;106640;-77
2023/11/05 11:16:41;;;;;;;14.60;7.90;;;;;;;9.92;84.65;97227.64;130651;1262;107937;-76
2023/11/05 11:19:49;;;;;;;11.20;7.40;;;;;;;9.95;84.96;97233.92;130564;1258;107639;-73
2023/11/05 11:23:00;;;;;;;9.20;5.60;;;;;;;9.97;85.37;97235.17;130511;1271;107039;-72
2023/11/05 11:26:18;;;;;;;11.10;8.30;;;;;;;9.96;85.19;97248.61;130479;1262;108113;-72
2023/11/05 11:29:25;;;;;;;10.30;6.80;;;;;;;9.94;85.36;97242.05;130547;1263;106544;-72
2023/11/05 11:32:33;;;;;;;9.00;4.70;;;;;;;9.90;85.56;97251.19;130452;1262;108729;-72
2023/11/05 11:35:41;;;;;;;11.10;6.70;;;;;;;9.89;85.78;97241.15;130526;1266;106393;-76
2023/11/05 11:38:46;;;;;;;9.40;5.80;;;;;;;9.92;85.92;97237.20;130477;1263;109349;-73
2023/11/05 11:41:52;;;;;;;14.10;8.90;;;;;;;9.96;85.86;97237.71;130478;1263;106582;-74
2023/11/05 11:44:58;;;;;;;9.20;6.60;;;;;;;9.97;85.69;97230.91;130514;1263;106798;-73
2023/11/05 11:48:07;;;;;;;13.00;8.00;;;;;;;9.97;85.94;97225.20;130454;1260;108391;-73
2023/11/05 11:51:13;;;;;;;6.90;4.50;;;;;;;9.97;86.02;97228.44;130545;1263;107753;-73
2023/11/05 11:54:19;;;;;;;6.50;4.60;;;;;;;9.98;86.34;97218.23;130487;1264;108563;-73
2023/11/05 11:57:26;;;;;;;11.40;8.20;;;;;;;10.01;86.50;97217.36;130583;1262;107678;-73
2023/11/05 12:00:31;;;;;;;8.40;5.80;;;;;;;10.04;86.51;97211.80;130531;1262;107805;-73
2023/11/05 12:03:37;;;;;;;9.50;7.00;;;;;;;10.05;86.13;97211.78;130582;1260;107819;-72
2023/11/05 12:06:44;;;;;;;7.70;5.10;;;;;;;10.03;86.41;97206.34;130521;1262;107382;-72
2023/11/05 12:09:56;;;;;;;9.10;5.00;;;;;;;10.02;86.24;97205.80;130697;1260;107734;-73
2023/11/05 12:13:02;;;;;;;8.00;4.90;;;;;;;10.01;86.56;97194.41;130736;1260;106955;-73
2023/11/05 12:16:09;;;;;;;7.40;4.80;;;;;;;10.05;86.65;97199.77;130507;1263;107469;-74
2023/11/05 12:19:15;;;;;;;8.00;4.50;;;;;;;10.09;86.45;97191.95;130444;1263;109306;-74
2023/11/05 12:22:21;;;;;;;9.70;5.70;;;;;;;10.14;86.91;97188.14;130422;1261;106315;-74
2023/11/05 12:25:27;;;;;;;7.90;4.80;;;;;;;10.18;86.98;97185.64;130441;1265;108430;-74
2023/11/05 12:28:33;;;;;;;11.70;5.90;;;;;;;10.20;86.99;97185.53;130501;1270;107757;-73
2023/11/05 12:31:41;;;;;;;27.80;17.50;;;;;;;10.19;86.99;97188.60;130470;1262;107915;-75
2023/11/05 12:34:47;;;;;;;21.90;15.40;;;;;;;10.20;86.93;97194.66;130540;1270;107311;-73
2023/11/05 12:37:53;;;;;;;14.60;8.30;;;;;;;10.22;87.06;97188.10;130333;1256;106690;-74
2023/11/05 12:40:59;;;;;;;24.70;13.40;;;;;;;10.27;87.65;97190.47;130430;1257;107769;-74
2023/11/05 12:44:06;;;;;;;15.00;11.40;;;;;;;10.30;87.33;97187.23;130520;1270;107535;-73
2023/11/05 12:47:11;;;;;;;16.50;8.90;;;;;;;10.30;87.19;97185.44;130468;1269;108725;-73
2023/11/05 12:50:18;;;;;;;12.50;7.40;;;;;;;10.29;87.35;97185.48;130515;1271;108810;-73
2023/11/05 12:53:24;;;;;;;20.10;16.00;;;;;;;10.28;87.28;97190.64;130405;1263;108054;-73
2023/11/05 12:56:30;;;;;;;16.80;12.90;;;;;;;10.26;87.32;97186.43;130524;1257;106605;-74
2023/11/05 12:59:39;;;;;;;20.50;16.80;;;;;;;10.26;87.31;97184.78;130476;1261;108342;-73
2023/11/05 13:02:44;;;;;;;24.10;18.70;;;;;;;10.25;87.53;97190.14;130469;1262;106979;-74
2023/11/05 13:05:50;;;;;;;13.00;8.30;;;;;;;10.23;87.66;97188.02;130496;1261;108659;-73
2023/11/05 13:08:56;;;;;;;16.00;9.20;;;;;;;10.19;87.49;97187.42;130461;1271;108157;-73
2023/11/05 13:12:04;;;;;;;10.90;8.20;;;;;;;10.13;87.65;97188.13;130576;1262;107509;-73
2023/11/05 13:15:12;;;;;;;10.60;6.20;;;;;;;10.09;87.76;97190.04;130665;1260;107684;-72
2023/11/05 13:18:18;;;;;;;8.10;5.50;;;;;;;10.07;87.91;97187.86;130474;1270;106582;-73
2023/11/05 13:21:25;;;;;;;7.80;4.80;;;;;;;10.08;87.95;97189.48;130583;1265;106683;-73
2023/11/05 13:24:31;;;;;;;6.20;4.50;;;;;;;10.07;87.71;97187.30;130459;1264;108752;-73
2023/11/05 13:27:37;;;;;;;6.50;4.00;;;;;;;10.02;87.67;97187.84;130407;1262;106538;-73
2023/11/05 13:30:43;;;;;;;7.20;4.60;;;;;;;9.99;88.06;97183.23;130678;1261;106848;-74
2023/11/05 13:33:49;;;;;;;13.60;8.50;;;;;;;9.98;88.04;97187.77;130576;1261;106579;-74
2023/11/05 13:36:56;;;;;;;10.00;5.80;;;;;;;9.98;88.33;97187.23;130615;1260;108275;-72
2023/11/05 13:40:03;;;;;;;9.40;6.60;;;;;;;9.99;88.32;97188.02;130547;1261;106828;-72
2023/11/05 13:43:10;;;;;;;10.70;7.80;;;;;;;9.99;88.27;97188.71;130586;1270;107320;-73
2023/11/05 13:46:18;;;;;;;9.50;6.70;;;;;;;9.97;88.40;97186.04;130477;1260;107795;-72
2023/11/05 13:49:24;;;;;;;6.30;4.70;;;;;;;9.94;88.49;97193.89;130458;1261;107869;-72
2023/11/05 13:52:29;;;;;;;12.60;6.90;;;;;;;9.93;88.51;97191.40;130566;1271;108724;-72
2023/11/05 13:55:35;;;;;;;10.40;6.60;;;;;;;9.94;88.66;97192.62;130488;1268;107911;-74
2023/11/05 13:58:40;;;;;;;9.20;5.70;;;;;;;9.94;88.69;97194.59;130671;1261;107934;-74
2023/11/05 14:01:47;;;;;;;8.90;5.60;;;;;;;9.93;88.70;97199.23;130715;1257;108322;-73
2023/11/05 14:04:53;;;;;;;16.60;7.70;;;;;;;9.90;88.85;97205.98;130513;1260;106503;-73
2023/11/05 14:07:58;;;;;;;13.20;7.30;;;;;;;9.88;88.83;97208.16;130527;1271;107219;-73
2023/11/05 14:11:07;;;;;;;13.90;7.10;;;;;;;9.86;88.85;97209.97;130745;1257;107238;-73
2023/11/05 14:14:12;;;;;;;11.40;8.40;;;;;;;9.86;89.05;97209.27;130562;1257;106650;-73